createdAt,value
2018-09-03T00:02:04.879Z,33.97
2018-09-03T00:04:33.473Z,29.37
2018-09-03T00:07:02.007Z,27.83
2018-09-03T00:09:35.907Z,30.03
2018-09-03T00:12:04.374Z,31.00
2018-09-03T00:14:32.804Z,27.37
2018-09-03T00:17:01.293Z,28.47
2018-09-03T00:19:29.789Z,28.07
2018-09-03T00:21:58.295Z,30.00
2018-09-03T00:24:26.781Z,29.60
2018-09-03T00:26:55.247Z,30.13
2018-09-03T00:29:23.763Z,28.27
2018-09-03T00:31:57.494Z,28.90
2018-09-03T00:34:31.364Z,27.83
2018-09-03T00:38:05.191Z,27.93
2018-09-03T00:40:38.962Z,25.23
2018-09-03T00:43:12.745Z,28.33
2018-09-03T00:45:46.580Z,29.63
2018-09-03T00:48:15.063Z,28.83
2018-09-03T00:50:43.505Z,21.90
2018-09-03T00:53:11.961Z,27.30
2018-09-03T00:55:40.433Z,24.33
2018-09-03T00:58:08.953Z,27.20
2018-09-03T01:00:37.448Z,30.90
2018-09-03T01:03:05.992Z,27.47
2018-09-03T01:05:34.495Z,26.33
2018-09-03T01:08:02.997Z,26.17
2018-09-03T01:10:31.485Z,27.17
2018-09-03T01:12:59.965Z,31.33
2018-09-03T01:15:30.358Z,26.17
2018-09-03T01:18:00.596Z,25.50
2018-09-03T01:20:29.056Z,27.90
2018-09-03T01:22:57.558Z,30.30
2018-09-03T01:25:26.014Z,28.70
2018-09-03T01:27:54.463Z,24.10
2018-09-03T01:30:22.893Z,25.53
2018-09-03T01:32:51.338Z,30.33
2018-09-03T01:35:19.768Z,27.17
2018-09-03T01:37:48.308Z,23.73
2018-09-03T01:40:16.797Z,26.70
2018-09-03T01:42:45.245Z,23.80
2018-09-03T01:45:13.694Z,23.90
2018-09-03T01:47:42.134Z,25.67
2018-09-03T01:50:10.811Z,24.30
2018-09-03T01:52:39.276Z,27.50
2018-09-03T01:55:07.723Z,23.07
2018-09-03T01:57:36.363Z,25.00
2018-09-03T02:00:04.973Z,24.70
2018-09-03T02:02:33.411Z,23.17
2018-09-03T02:05:01.897Z,22.27
2018-09-03T02:07:30.415Z,23.17
2018-09-03T02:09:58.879Z,24.47
2018-09-03T02:12:27.329Z,26.63
2018-09-03T02:14:55.763Z,26.30
2018-09-03T02:17:24.244Z,23.57
2018-09-03T02:19:52.696Z,27.40
2018-09-03T02:22:21.158Z,22.70
2018-09-03T02:24:49.602Z,23.97
2018-09-03T02:27:18.113Z,26.73
2018-09-03T02:29:46.588Z,22.47
2018-09-03T02:32:15.092Z,22.47
2018-09-03T02:34:43.598Z,24.30
2018-09-03T02:37:12.130Z,24.20
2018-09-03T02:39:40.890Z,25.13
2018-09-03T02:42:11.160Z,24.80
2018-09-03T02:44:39.612Z,25.10
2018-09-03T02:47:08.165Z,25.17
2018-09-03T02:49:36.652Z,24.80
2018-09-03T02:52:05.202Z,24.97
2018-09-03T02:54:33.652Z,25.07
2018-09-03T02:57:02.140Z,26.43
2018-09-03T02:59:30.638Z,23.97
2018-09-03T03:01:59.089Z,24.87
2018-09-03T03:04:27.493Z,27.03
2018-09-03T03:06:55.982Z,26.23
2018-09-03T03:09:24.484Z,26.43
2018-09-03T03:11:52.967Z,29.23
2018-09-03T03:14:21.424Z,23.13
2018-09-03T03:16:49.849Z,26.50
2018-09-03T03:19:18.306Z,24.27
2018-09-03T03:21:46.802Z,24.93
2018-09-03T03:24:15.312Z,24.90
2018-09-03T03:26:43.778Z,28.40
2018-09-03T03:29:12.266Z,27.50
2018-09-03T03:31:40.743Z,28.73
2018-09-03T03:34:09.239Z,26.23
2018-09-03T03:36:37.751Z,26.43
2018-09-03T03:39:07.149Z,27.17
2018-09-03T03:41:35.923Z,29.73
2018-09-03T03:44:04.431Z,26.67
2018-09-03T03:46:33.057Z,27.17
2018-09-03T03:49:01.579Z,25.47
2018-09-03T03:51:30.061Z,29.93
2018-09-03T03:53:58.543Z,26.33
2018-09-03T03:56:27.068Z,27.37
2018-09-03T03:58:55.588Z,26.20
2018-09-03T04:01:24.111Z,29.23
2018-09-03T04:03:52.577Z,25.73
2018-09-03T04:06:21.043Z,29.80
2018-09-03T04:08:49.473Z,35.87
2018-09-03T04:11:17.961Z,28.57
2018-09-03T04:13:46.427Z,27.60
2018-09-03T04:16:14.900Z,30.40
2018-09-03T04:18:43.349Z,32.53
2018-09-03T04:21:11.799Z,29.63
2018-09-03T04:23:40.266Z,30.97
2018-09-03T04:26:08.742Z,29.83
2018-09-03T04:28:37.187Z,33.50
2018-09-03T04:31:05.663Z,31.67
2018-09-03T04:33:34.106Z,35.70
2018-09-03T04:36:03.172Z,31.63
2018-09-03T04:38:31.635Z,34.10
2018-09-03T04:41:00.096Z,35.87
2018-09-03T04:43:28.598Z,32.07
2018-09-03T04:45:57.370Z,35.10
2018-09-03T04:48:25.867Z,32.37
2018-09-03T04:50:54.542Z,33.73
2018-09-03T04:53:23.109Z,35.83
2018-09-03T04:55:51.554Z,33.93
2018-09-03T04:58:20.416Z,37.60
2018-09-03T05:00:48.894Z,30.63
2018-09-03T05:03:17.330Z,33.33
2018-09-03T05:05:45.883Z,37.03
2018-09-03T05:08:14.266Z,42.93
2018-09-03T05:10:42.794Z,36.93
2018-09-03T05:13:11.250Z,40.33
2018-09-03T05:15:39.706Z,38.27
2018-09-03T05:18:08.182Z,41.00
2018-09-03T05:20:36.722Z,39.07
2018-09-03T05:23:05.488Z,35.93
2018-09-03T05:25:33.953Z,37.00
2018-09-03T05:28:02.429Z,41.07
2018-09-03T05:30:30.966Z,37.27
2018-09-03T05:32:59.563Z,40.47
2018-09-03T05:35:28.000Z,35.67
2018-09-03T05:37:56.441Z,35.87
2018-09-03T05:40:24.910Z,34.90
2018-09-03T05:42:53.409Z,40.40
2018-09-03T05:45:21.865Z,35.03
2018-09-03T05:47:50.336Z,36.00
2018-09-03T05:50:18.901Z,39.30
2018-09-03T05:52:47.283Z,36.80
2018-09-03T05:55:15.883Z,37.33
2018-09-03T05:57:44.339Z,37.07
2018-09-03T06:00:12.865Z,40.33
2018-09-03T06:02:41.382Z,35.80
2018-09-03T06:05:09.929Z,40.13
2018-09-03T06:07:40.062Z,35.30
2018-09-03T06:10:08.618Z,37.10
2018-09-03T06:12:37.366Z,34.53
2018-09-03T06:15:05.833Z,42.77
2018-09-03T06:17:34.321Z,35.70
2018-09-03T06:20:02.810Z,41.07
2018-09-03T06:22:31.289Z,43.40
2018-09-03T06:24:59.802Z,41.60
2018-09-03T06:27:28.291Z,49.40
2018-09-03T06:29:56.760Z,47.73
2018-09-03T06:32:25.248Z,56.30
2018-09-03T06:34:53.714Z,43.27
2018-09-03T06:37:22.196Z,43.40
2018-09-03T06:39:50.680Z,39.07
2018-09-03T06:42:19.159Z,37.67
2018-09-03T06:44:47.656Z,34.33
2018-09-03T06:47:16.184Z,37.40
2018-09-03T06:49:44.678Z,41.47
2018-09-03T06:52:13.182Z,40.20
2018-09-03T06:54:41.630Z,34.83
2018-09-03T06:57:10.053Z,35.17
2018-09-03T06:59:38.662Z,34.40
2018-09-03T07:02:07.740Z,35.03
2018-09-03T07:04:36.446Z,33.20
2018-09-03T07:07:05.437Z,25.77
2018-09-03T07:09:33.931Z,23.00
2018-09-03T07:12:02.446Z,30.43
2018-09-03T07:14:30.926Z,26.00
2018-09-03T07:16:59.387Z,26.73
2018-09-03T07:19:27.912Z,27.47
2018-09-03T07:22:02.913Z,25.63
2018-09-03T07:24:31.365Z,23.47
2018-09-03T07:27:01.113Z,26.60
2018-09-03T07:29:29.593Z,26.93
2018-09-03T07:31:58.043Z,29.93
2018-09-03T07:34:26.576Z,24.83
2018-09-03T07:36:55.874Z,24.77
2018-09-03T07:39:24.360Z,22.93
2018-09-03T07:41:52.921Z,20.80
2018-09-03T07:44:21.353Z,21.13
2018-09-03T07:46:49.809Z,20.00
2018-09-03T07:49:18.292Z,18.43
2018-09-03T07:51:46.738Z,24.10
2018-09-03T07:54:15.178Z,19.00
2018-09-03T07:56:43.656Z,16.90
2018-09-03T07:59:17.626Z,21.90
2018-09-03T08:01:46.071Z,14.73
2018-09-03T08:04:14.488Z,15.60
2018-09-03T08:06:42.902Z,15.27
2018-09-03T08:09:12.210Z,14.33
2018-09-03T08:11:40.726Z,12.60
2018-09-03T08:14:09.145Z,15.20
2018-09-03T08:16:37.620Z,13.80
2018-09-03T08:19:06.125Z,17.83
2018-09-03T08:21:34.554Z,16.93
2018-09-03T08:24:02.969Z,17.53
2018-09-03T08:26:31.437Z,15.07
2018-09-03T08:28:59.926Z,20.10
2018-09-03T08:31:28.373Z,20.97
2018-09-03T08:33:56.820Z,14.43
2018-09-03T08:36:25.270Z,18.27
2018-09-03T08:38:53.730Z,17.73
2018-09-03T08:41:22.267Z,16.87
2018-09-03T08:43:50.698Z,17.40
2018-09-03T08:46:19.208Z,23.00
2018-09-03T08:48:47.669Z,26.53
2018-09-03T08:51:16.168Z,28.80
2018-09-03T08:53:44.617Z,22.13
2018-09-03T08:56:13.096Z,18.47
2018-09-03T08:58:41.644Z,24.23
2018-09-03T09:01:10.081Z,19.47
2018-09-03T09:03:40.518Z,21.10
2018-09-03T09:06:09.272Z,14.90
2018-09-03T09:08:37.762Z,14.77
2018-09-03T09:11:07.364Z,14.23
2018-09-03T09:13:35.843Z,17.43
2018-09-03T09:16:04.327Z,18.23
2018-09-03T09:18:32.806Z,17.57
2018-09-03T09:21:01.249Z,21.50
2018-09-03T09:23:29.706Z,17.43
2018-09-03T09:25:58.197Z,23.47
2018-09-03T09:28:26.661Z,15.80
2018-09-03T09:30:55.150Z,19.80
2018-09-03T09:33:23.613Z,24.30
2018-09-03T09:35:52.112Z,16.77
2018-09-03T09:38:20.545Z,17.40
2018-09-03T09:40:49.035Z,16.90
2018-09-03T09:43:17.567Z,18.43
2018-09-03T09:45:45.977Z,19.57
2018-09-03T09:48:15.463Z,19.47
2018-09-03T09:50:43.905Z,20.13
2018-09-03T09:53:12.434Z,18.47
2018-09-03T09:55:40.869Z,20.30
2018-09-03T09:58:09.305Z,18.87
2018-09-03T10:00:43.216Z,24.27
2018-09-03T10:03:11.747Z,21.03
2018-09-03T10:05:40.154Z,16.80
2018-09-03T10:08:08.592Z,17.33
2018-09-03T10:10:37.006Z,19.67
2018-09-03T10:13:05.459Z,18.63
2018-09-03T10:15:34.007Z,16.40
2018-09-03T10:18:02.578Z,15.47
2018-09-03T10:20:31.152Z,24.00
2018-09-03T10:22:59.783Z,14.63
2018-09-03T10:25:28.239Z,13.17
2018-09-03T10:27:56.750Z,13.93
2018-09-03T10:30:25.227Z,18.63
2018-09-03T10:32:53.736Z,11.00
2018-09-03T10:35:22.158Z,12.57
2018-09-03T10:37:50.630Z,14.93
2018-09-03T10:40:19.083Z,14.17
2018-09-03T10:42:47.546Z,14.27
2018-09-03T10:45:16.005Z,15.43
2018-09-03T10:47:44.596Z,13.47
2018-09-03T10:50:13.063Z,13.80
2018-09-03T10:52:41.526Z,13.77
2018-09-03T10:55:10.056Z,11.70
2018-09-03T10:57:38.559Z,15.93
2018-09-03T11:00:08.258Z,12.47
2018-09-03T11:02:36.748Z,14.77
2018-09-03T11:05:05.271Z,13.67
2018-09-03T11:07:33.742Z,13.40
2018-09-03T11:10:02.252Z,11.00
2018-09-03T11:12:30.757Z,10.63
2018-09-03T11:14:59.257Z,14.97
2018-09-03T11:17:27.769Z,14.00
2018-09-03T11:19:58.496Z,11.63
2018-09-03T11:22:27.067Z,10.37
2018-09-03T11:24:55.640Z,9.63
2018-09-03T11:27:24.102Z,12.37
2018-09-03T11:29:52.583Z,9.47
2018-09-03T11:32:21.720Z,12.20
2018-09-03T11:34:50.198Z,13.47
2018-09-03T11:37:18.678Z,7.80
2018-09-03T11:39:47.138Z,13.07
2018-09-03T11:42:15.605Z,10.53
2018-09-03T11:44:44.143Z,14.10
2018-09-03T11:47:12.676Z,11.53
2018-09-03T11:49:41.135Z,10.07
2018-09-03T11:52:10.221Z,9.53
2018-09-03T11:54:38.747Z,11.73
2018-09-03T11:57:07.371Z,13.23
2018-09-03T11:59:35.837Z,13.20
2018-09-03T12:02:05.085Z,8.10
2018-09-03T12:04:33.552Z,12.00
2018-09-03T12:07:02.205Z,10.97
2018-09-03T12:09:30.636Z,10.97
2018-09-03T12:11:59.111Z,11.33
2018-09-03T12:14:31.009Z,11.83
2018-09-03T12:17:00.012Z,10.70
2018-09-03T12:19:28.512Z,12.60
2018-09-03T12:21:56.920Z,8.67
2018-09-03T12:24:25.410Z,8.40
2018-09-03T12:26:53.878Z,12.43
2018-09-03T12:29:22.335Z,12.87
2018-09-03T12:31:50.796Z,13.43
2018-09-03T12:34:19.274Z,13.60
2018-09-03T12:36:47.748Z,11.73
2018-09-03T12:39:16.230Z,12.20
2018-09-03T12:41:44.718Z,11.37
2018-09-03T12:44:13.178Z,13.80
2018-09-03T12:46:41.647Z,10.90
2018-09-03T12:49:10.067Z,9.60
2018-09-03T12:51:38.530Z,10.77
2018-09-03T12:54:06.985Z,11.93
2018-09-03T12:56:35.423Z,15.17
2018-09-03T12:59:03.931Z,10.17
2018-09-03T13:01:32.437Z,12.80
2018-09-03T13:04:00.899Z,18.60
2018-09-03T13:06:29.426Z,11.13
2018-09-03T13:08:57.891Z,10.97
2018-09-03T13:11:26.413Z,12.00
2018-09-03T13:13:54.951Z,15.83
2018-09-03T13:16:23.412Z,13.03
2018-09-03T13:18:51.937Z,10.63
2018-09-03T13:21:20.424Z,11.63
2018-09-03T13:23:48.969Z,12.27
2018-09-03T13:26:17.471Z,13.93
2018-09-03T13:28:45.978Z,14.40
2018-09-03T13:31:14.490Z,15.43
2018-09-03T13:33:42.996Z,13.20
2018-09-03T13:36:11.505Z,14.13
2018-09-03T13:38:39.963Z,10.13
2018-09-03T13:41:20.456Z,12.63
2018-09-03T13:43:48.916Z,11.97
2018-09-03T13:46:17.362Z,13.00
2018-09-03T13:48:45.828Z,12.67
2018-09-03T13:51:14.242Z,12.80
2018-09-03T13:53:42.700Z,12.53
2018-09-03T13:56:11.182Z,11.43
2018-09-03T13:58:39.659Z,10.93
2018-09-03T14:01:08.133Z,14.60
2018-09-03T14:03:36.586Z,9.57
2018-09-03T14:06:05.068Z,11.13
2018-09-03T14:08:33.521Z,10.50
2018-09-03T14:11:02.022Z,12.87
2018-09-03T14:13:30.480Z,14.13
2018-09-03T14:15:58.929Z,11.83
2018-09-03T14:18:27.761Z,11.23
2018-09-03T14:20:56.259Z,10.83
2018-09-03T14:23:24.767Z,12.70
2018-09-03T14:25:56.159Z,11.17
2018-09-03T14:28:24.697Z,10.90
2018-09-03T14:30:53.158Z,12.37
2018-09-03T14:33:21.625Z,11.63
2018-09-03T14:35:50.196Z,11.67
2018-09-03T14:38:18.677Z,11.80
2018-09-03T14:40:47.183Z,12.20
2018-09-03T14:43:15.700Z,13.23
2018-09-03T14:45:44.167Z,14.37
2018-09-03T14:48:12.693Z,14.33
2018-09-03T14:50:41.173Z,11.23
2018-09-03T14:53:09.665Z,10.27
2018-09-03T14:55:38.089Z,14.47
2018-09-03T14:58:06.511Z,10.03
2018-09-03T15:00:35.044Z,15.30
2018-09-03T15:03:03.507Z,11.43
2018-09-03T15:05:31.997Z,17.43
2018-09-03T15:08:00.540Z,14.23
2018-09-03T15:10:36.548Z,10.80
2018-09-03T15:13:30.617Z,13.43
2018-09-03T15:16:14.744Z,13.90
2018-09-03T15:18:54.501Z,12.10
2018-09-03T15:21:22.955Z,14.17
2018-09-03T15:23:51.577Z,13.47
2018-09-03T15:26:20.196Z,11.67
2018-09-03T15:28:48.575Z,11.20
2018-09-03T15:31:17.165Z,14.73
2018-09-03T15:33:46.270Z,14.00
2018-09-03T15:36:16.066Z,14.40
2018-09-03T15:38:44.859Z,9.77
2018-09-03T15:41:13.339Z,11.67
2018-09-03T15:43:41.825Z,10.23
2018-09-03T15:46:10.804Z,14.60
2018-09-03T15:48:39.465Z,14.27
2018-09-03T15:51:07.888Z,11.13
2018-09-03T15:53:36.442Z,12.57
2018-09-03T15:56:04.997Z,15.73
2018-09-03T15:58:33.534Z,11.27
2018-09-03T16:01:02.080Z,12.80
2018-09-03T16:03:30.622Z,14.00
2018-09-03T16:06:00.027Z,10.20
2018-09-03T16:08:28.526Z,13.30
2018-09-03T16:10:57.084Z,13.53
2018-09-03T16:13:25.547Z,11.73
2018-09-03T16:15:54.144Z,12.47
2018-09-03T16:18:22.708Z,13.37
2018-09-03T16:20:51.353Z,10.23
2018-09-03T16:23:19.857Z,11.43
2018-09-03T16:25:48.432Z,13.13
2018-09-03T16:28:18.273Z,14.47
2018-09-03T17:05:47.100Z,15.87
2018-09-03T17:11:55.717Z,16.40
2018-09-03T17:14:28.193Z,16.20
2018-09-03T17:17:08.583Z,17.37
2018-09-03T17:20:49.967Z,17.83
2018-09-03T17:26:45.770Z,18.33
2018-09-03T17:29:14.358Z,21.37
2018-09-03T17:31:42.825Z,22.03
2018-09-03T17:34:11.361Z,20.13
2018-09-03T17:36:39.861Z,22.73
2018-09-03T17:39:08.900Z,18.30
2018-09-03T17:41:37.475Z,19.30
2018-09-03T17:44:06.052Z,20.33
2018-09-03T17:46:36.074Z,22.50
2018-09-03T17:49:04.643Z,20.37
2018-09-03T17:51:33.114Z,20.73
2018-09-03T17:54:06.127Z,27.67
2018-09-03T17:56:34.613Z,22.00
2018-09-03T17:59:03.126Z,19.90
2018-09-03T18:01:31.638Z,22.70
2018-09-03T18:04:00.180Z,21.57
2018-09-03T18:06:28.690Z,19.13
2018-09-03T18:08:57.139Z,19.47
2018-09-03T18:11:25.615Z,19.20
2018-09-03T18:13:54.296Z,22.17
2018-09-03T18:16:22.855Z,17.93
2018-09-03T18:18:51.947Z,18.57
2018-09-03T18:21:20.446Z,20.47
2018-09-03T18:23:48.923Z,20.13
2018-09-03T18:26:17.401Z,20.37
2018-09-03T18:28:45.872Z,21.07
2018-09-03T18:31:14.352Z,18.97
2018-09-03T18:33:42.817Z,20.13
2018-09-03T18:36:11.302Z,19.13
2018-09-03T18:38:39.777Z,17.53
2018-09-03T18:41:08.333Z,23.83
2018-09-03T18:43:36.803Z,21.20
2018-09-03T18:46:05.285Z,18.60
2018-09-03T18:48:33.841Z,21.57
2018-09-03T18:51:02.307Z,23.50
2018-09-03T18:53:30.822Z,18.37
2018-09-03T18:55:59.269Z,20.27
2018-09-03T18:58:27.757Z,17.87
2018-09-03T19:00:56.263Z,19.30
2018-09-03T19:03:26.448Z,20.53
2018-09-03T19:59:17.579Z,31.60
2018-09-03T20:01:46.045Z,31.83
2018-09-03T20:04:14.491Z,31.70
2018-09-03T20:06:42.961Z,30.30
2018-09-03T20:09:11.419Z,30.97
2018-09-03T20:11:39.936Z,32.37
2018-09-03T20:14:08.396Z,28.10
2018-09-03T20:16:37.077Z,38.10
2018-09-03T20:19:05.565Z,33.73
2018-09-03T20:21:34.033Z,33.57
2018-09-03T20:24:02.533Z,37.90
2018-09-03T20:26:31.039Z,33.33
2018-09-03T20:28:59.561Z,35.23
2018-09-03T20:36:59.289Z,34.07
2018-09-03T20:40:15.872Z,36.90
2018-09-03T20:42:44.438Z,36.20
2018-09-03T20:45:19.033Z,37.33
2018-09-03T20:48:04.547Z,36.27
2018-09-03T20:56:44.790Z,39.70
2018-09-03T20:59:38.586Z,40.03
2018-09-03T21:02:32.173Z,46.63
2018-09-03T21:05:33.845Z,46.83
2018-09-03T21:11:44.348Z,48.40
2018-09-03T21:14:39.442Z,49.07
2018-09-03T21:17:46.233Z,47.17
2018-09-03T21:20:38.760Z,50.10
2018-09-03T21:23:48.325Z,52.93
2018-09-03T21:27:01.475Z,55.03
2018-09-03T22:51:53.320Z,40.40
2018-09-03T22:54:50.508Z,40.97
2018-09-03T22:57:30.458Z,40.57
2018-09-03T23:05:36.999Z,38.53
2018-09-03T23:08:18.394Z,45.30
2018-09-03T23:10:54.770Z,38.53
2018-09-03T23:13:29.352Z,48.03
2018-09-03T23:16:06.007Z,40.93
2018-09-03T23:18:55.113Z,43.83
2018-09-03T23:21:25.498Z,44.43
2018-09-03T23:24:07.606Z,43.83
2018-09-03T23:26:50.083Z,44.33
2018-09-03T23:29:28.896Z,38.57
2018-09-03T23:32:06.641Z,45.80
2018-09-03T23:34:59.111Z,44.70
2018-09-03T23:37:31.823Z,50.60
2018-09-03T23:40:08.755Z,44.10
